sensor_id;sensor_type;location;lat;lon;timestamp;P1;durP1;ratioP1;P2;durP2;ratioP2
5553;SDS011;2800;49.528;8.666;2023-01-25T00:01:20;25.13;;;18.40;;
5553;SDS011;2800;49.528;8.666;2023-01-25T00:03:45;24.67;;;17.50;;
5553;SDS011;2800;49.528;8.666;2023-01-25T00:06:11;26.37;;;19.17;;
5553;SDS011;2800;49.528;8.666;2023-01-25T00:08:36;23.93;;;17.93;;
5553;SDS011;2800;49.528;8.666;2023-01-25T00:11:02;24.17;;;17.90;;
5553;SDS011;2800;49.528;8.666;2023-01-25T00:13:28;23.43;;;17.13;;
5553;SDS011;2800;49.528;8.666;2023-01-25T00:15:59;24.30;;;17.40;;
5553;SDS011;2800;49.528;8.666;2023-01-25T00:18:26;27.58;;;17.63;;
5553;SDS011;2800;49.528;8.666;2023-01-25T00:20:51;22.90;;;15.87;;
5553;SDS011;2800;49.528;8.666;2023-01-25T00:23:17;23.13;;;17.17;;
5553;SDS011;2800;49.528;8.666;2023-01-25T00:25:42;24.73;;;17.60;;
5553;SDS011;2800;49.528;8.666;2023-01-25T00:28:08;23.77;;;17.03;;
5553;SDS011;2800;49.528;8.666;2023-01-25T00:37:02;23.33;;;16.70;;
5553;SDS011;2800;49.528;8.666;2023-01-25T00:39:38;23.85;;;16.10;;
5553;SDS011;2800;49.528;8.666;2023-01-25T00:42:03;23.40;;;16.10;;
5553;SDS011;2800;49.528;8.666;2023-01-25T00:44:29;21.13;;;14.65;;
5553;SDS011;2800;49.528;8.666;2023-01-25T00:46:55;20.90;;;14.60;;
5553;SDS011;2800;49.528;8.666;2023-01-25T00:49:21;18.27;;;14.07;;
5553;SDS011;2800;49.528;8.666;2023-01-25T00:51:49;20.75;;;12.85;;
5553;SDS011;2800;49.528;8.666;2023-01-25T00:54:15;21.52;;;13.80;;
5553;SDS011;2800;49.528;8.666;2023-01-25T00:56:41;21.00;;;13.90;;
5553;SDS011;2800;49.528;8.666;2023-01-25T00:59:08;20.53;;;14.77;;
5553;SDS011;2800;49.528;8.666;2023-01-25T01:01:34;24.95;;;14.95;;
5553;SDS011;2800;49.528;8.666;2023-01-25T01:03:59;19.77;;;14.30;;
5553;SDS011;2800;49.528;8.666;2023-01-25T01:09:28;18.85;;;14.05;;
5553;SDS011;2800;49.528;8.666;2023-01-25T01:11:54;20.97;;;14.83;;
5553;SDS011;2800;49.528;8.666;2023-01-25T01:21:03;22.90;;;16.45;;
5553;SDS011;2800;49.528;8.666;2023-01-25T01:23:29;22.70;;;16.73;;
5553;SDS011;2800;49.528;8.666;2023-01-25T01:25:58;23.83;;;17.95;;
5553;SDS011;2800;49.528;8.666;2023-01-25T01:28:31;22.10;;;16.13;;
5553;SDS011;2800;49.528;8.666;2023-01-25T01:31:02;20.85;;;16.35;;
5553;SDS011;2800;49.528;8.666;2023-01-25T01:33:32;19.95;;;14.70;;
5553;SDS011;2800;49.528;8.666;2023-01-25T01:35:58;21.57;;;15.90;;
5553;SDS011;2800;49.528;8.666;2023-01-25T01:38:40;22.65;;;15.45;;
5553;SDS011;2800;49.528;8.666;2023-01-25T01:41:07;19.95;;;14.75;;
5553;SDS011;2800;49.528;8.666;2023-01-25T01:43:33;20.08;;;14.82;;
5553;SDS011;2800;49.528;8.666;2023-01-25T01:46:00;17.67;;;12.85;;
5553;SDS011;2800;49.528;8.666;2023-01-25T01:54:04;18.20;;;10.90;;
5553;SDS011;2800;49.528;8.666;2023-01-25T01:56:38;14.13;;;9.88;;
5553;SDS011;2800;49.528;8.666;2023-01-25T01:59:10;14.95;;;11.02;;
5553;SDS011;2800;49.528;8.666;2023-01-25T02:01:37;15.60;;;9.90;;
5553;SDS011;2800;49.528;8.666;2023-01-25T02:04:03;13.55;;;9.88;;
5553;SDS011;2800;49.528;8.666;2023-01-25T02:06:37;14.52;;;9.90;;
5553;SDS011;2800;49.528;8.666;2023-01-25T02:09:09;13.60;;;9.93;;
5553;SDS011;2800;49.528;8.666;2023-01-25T02:11:36;13.90;;;10.07;;
5553;SDS011;2800;49.528;8.666;2023-01-25T02:14:02;13.32;;;9.77;;
5553;SDS011;2800;49.528;8.666;2023-01-25T02:16:28;13.30;;;9.33;;
5553;SDS011;2800;49.528;8.666;2023-01-25T02:18:54;14.37;;;10.13;;
5553;SDS011;2800;49.528;8.666;2023-01-25T02:21:22;14.40;;;9.80;;
5553;SDS011;2800;49.528;8.666;2023-01-25T02:24:03;13.35;;;9.25;;
5553;SDS011;2800;49.528;8.666;2023-01-25T02:26:42;12.00;;;7.13;;
5553;SDS011;2800;49.528;8.666;2023-01-25T02:29:08;14.60;;;10.00;;
5553;SDS011;2800;49.528;8.666;2023-01-25T02:31:35;13.48;;;9.65;;
5553;SDS011;2800;49.528;8.666;2023-01-25T02:34:00;14.57;;;9.30;;
5553;SDS011;2800;49.528;8.666;2023-01-25T02:36:27;13.97;;;9.90;;
5553;SDS011;2800;49.528;8.666;2023-01-25T02:38:56;13.63;;;10.05;;
5553;SDS011;2800;49.528;8.666;2023-01-25T02:43:54;19.53;;;11.80;;
5553;SDS011;2800;49.528;8.666;2023-01-25T02:46:23;15.93;;;11.27;;
5553;SDS011;2800;49.528;8.666;2023-01-25T02:48:54;15.98;;;10.82;;
5553;SDS011;2800;49.528;8.666;2023-01-25T02:51:21;15.23;;;10.15;;
5553;SDS011;2800;49.528;8.666;2023-01-25T02:53:47;15.50;;;11.88;;
5553;SDS011;2800;49.528;8.666;2023-01-25T02:56:13;16.37;;;11.70;;
5553;SDS011;2800;49.528;8.666;2023-01-25T02:58:39;16.00;;;11.20;;
5553;SDS011;2800;49.528;8.666;2023-01-25T03:01:05;16.27;;;11.57;;
5553;SDS011;2800;49.528;8.666;2023-01-25T03:03:30;17.77;;;11.53;;
5553;SDS011;2800;49.528;8.666;2023-01-25T03:05:55;17.80;;;12.23;;
5553;SDS011;2800;49.528;8.666;2023-01-25T03:08:21;18.03;;;13.10;;
5553;SDS011;2800;49.528;8.666;2023-01-25T03:10:46;19.30;;;13.63;;
5553;SDS011;2800;49.528;8.666;2023-01-25T03:13:12;18.33;;;12.03;;
5553;SDS011;2800;49.528;8.666;2023-01-25T03:15:37;17.27;;;11.10;;
5553;SDS011;2800;49.528;8.666;2023-01-25T03:18:03;19.27;;;12.87;;
5553;SDS011;2800;49.528;8.666;2023-01-25T03:20:28;17.83;;;12.70;;
5553;SDS011;2800;49.528;8.666;2023-01-25T03:22:54;19.60;;;13.07;;
5553;SDS011;2800;49.528;8.666;2023-01-25T03:25:19;17.50;;;11.70;;
5553;SDS011;2800;49.528;8.666;2023-01-25T03:31:15;16.15;;;11.05;;
5553;SDS011;2800;49.528;8.666;2023-01-25T03:33:41;17.27;;;11.23;;
5553;SDS011;2800;49.528;8.666;2023-01-25T03:36:07;15.60;;;10.47;;
5553;SDS011;2800;49.528;8.666;2023-01-25T03:38:33;17.05;;;12.38;;
5553;SDS011;2800;49.528;8.666;2023-01-25T03:40:59;22.10;;;12.97;;
5553;SDS011;2800;49.528;8.666;2023-01-25T03:43:25;19.08;;;13.10;;
5553;SDS011;2800;49.528;8.666;2023-01-25T03:45:52;17.75;;;12.00;;
5553;SDS011;2800;49.528;8.666;2023-01-25T03:48:19;21.35;;;13.27;;
5553;SDS011;2800;49.528;8.666;2023-01-25T03:50:52;17.30;;;12.07;;
5553;SDS011;2800;49.528;8.666;2023-01-25T03:53:19;22.23;;;13.13;;
5553;SDS011;2800;49.528;8.666;2023-01-25T03:55:56;17.88;;;13.35;;
5553;SDS011;2800;49.528;8.666;2023-01-25T03:58:32;19.05;;;12.70;;
5553;SDS011;2800;49.528;8.666;2023-01-25T04:00:59;18.30;;;13.27;;
5553;SDS011;2800;49.528;8.666;2023-01-25T04:03:25;25.08;;;19.08;;
5553;SDS011;2800;49.528;8.666;2023-01-25T04:05:51;19.70;;;13.80;;
5553;SDS011;2800;49.528;8.666;2023-01-25T04:08:18;17.95;;;12.85;;
5553;SDS011;2800;49.528;8.666;2023-01-25T04:10:48;20.02;;;13.25;;
5553;SDS011;2800;49.528;8.666;2023-01-25T04:13:34;22.20;;;14.13;;
5553;SDS011;2800;49.528;8.666;2023-01-25T04:16:01;17.98;;;12.52;;
5553;SDS011;2800;49.528;8.666;2023-01-25T04:18:30;21.95;;;12.63;;
5553;SDS011;2800;49.528;8.666;2023-01-25T04:20:56;21.03;;;13.63;;
5553;SDS011;2800;49.528;8.666;2023-01-25T04:23:22;20.57;;;14.23;;
5553;SDS011;2800;49.528;8.666;2023-01-25T04:25:56;21.55;;;14.60;;
5553;SDS011;2800;49.528;8.666;2023-01-25T04:28:23;15.93;;;10.65;;
5553;SDS011;2800;49.528;8.666;2023-01-25T04:30:49;18.92;;;13.18;;
5553;SDS011;2800;49.528;8.666;2023-01-25T04:33:14;19.00;;;12.90;;
5553;SDS011;2800;49.528;8.666;2023-01-25T04:35:41;18.73;;;12.40;;
5553;SDS011;2800;49.528;8.666;2023-01-25T04:38:08;19.92;;;14.00;;
5553;SDS011;2800;49.528;8.666;2023-01-25T04:40:34;19.02;;;13.20;;
5553;SDS011;2800;49.528;8.666;2023-01-25T04:42:59;20.53;;;13.43;;
5553;SDS011;2800;49.528;8.666;2023-01-25T04:45:25;20.73;;;13.83;;
5553;SDS011;2800;49.528;8.666;2023-01-25T04:47:57;17.50;;;12.70;;
5553;SDS011;2800;49.528;8.666;2023-01-25T04:50:25;18.17;;;12.45;;
5553;SDS011;2800;49.528;8.666;2023-01-25T04:52:50;19.27;;;13.60;;
5553;SDS011;2800;49.528;8.666;2023-01-25T04:55:16;23.20;;;15.43;;
5553;SDS011;2800;49.528;8.666;2023-01-25T04:57:41;22.97;;;14.90;;
5553;SDS011;2800;49.528;8.666;2023-01-25T05:00:07;22.30;;;15.00;;
5553;SDS011;2800;49.528;8.666;2023-01-25T05:02:34;22.27;;;15.32;;
5553;SDS011;2800;49.528;8.666;2023-01-25T05:04:59;23.73;;;15.90;;
5553;SDS011;2800;49.528;8.666;2023-01-25T05:07:25;24.37;;;16.47;;
5553;SDS011;2800;49.528;8.666;2023-01-25T05:09:50;24.77;;;16.50;;
5553;SDS011;2800;49.528;8.666;2023-01-25T05:12:16;24.80;;;17.70;;
5553;SDS011;2800;49.528;8.666;2023-01-25T05:14:41;25.23;;;16.47;;
5553;SDS011;2800;49.528;8.666;2023-01-25T05:17:07;26.30;;;17.17;;
5553;SDS011;2800;49.528;8.666;2023-01-25T05:19:33;24.43;;;17.30;;
5553;SDS011;2800;49.528;8.666;2023-01-25T05:21:59;26.40;;;17.97;;
5553;SDS011;2800;49.528;8.666;2023-01-25T05:24:29;26.08;;;17.40;;
5553;SDS011;2800;49.528;8.666;2023-01-25T05:26:56;22.02;;;15.10;;
5553;SDS011;2800;49.528;8.666;2023-01-25T05:29:26;28.60;;;18.27;;
5553;SDS011;2800;49.528;8.666;2023-01-25T05:31:52;29.95;;;21.08;;
5553;SDS011;2800;49.528;8.666;2023-01-25T05:34:17;23.10;;;16.23;;
5553;SDS011;2800;49.528;8.666;2023-01-25T05:36:43;26.23;;;16.30;;
5553;SDS011;2800;49.528;8.666;2023-01-25T05:39:09;24.57;;;16.17;;
5553;SDS011;2800;49.528;8.666;2023-01-25T05:41:34;26.20;;;17.20;;
5553;SDS011;2800;49.528;8.666;2023-01-25T05:44:00;25.17;;;16.80;;
5553;SDS011;2800;49.528;8.666;2023-01-25T05:46:26;26.60;;;18.00;;
5553;SDS011;2800;49.528;8.666;2023-01-25T05:48:52;25.48;;;18.05;;
5553;SDS011;2800;49.528;8.666;2023-01-25T05:51:17;26.27;;;17.93;;
5553;SDS011;2800;49.528;8.666;2023-01-25T05:53:43;28.17;;;19.70;;
5553;SDS011;2800;49.528;8.666;2023-01-25T05:56:08;20.70;;;15.50;;
5553;SDS011;2800;49.528;8.666;2023-01-25T05:58:35;22.98;;;15.65;;
5553;SDS011;2800;49.528;8.666;2023-01-25T06:01:05;24.88;;;15.30;;
5553;SDS011;2800;49.528;8.666;2023-01-25T06:03:31;22.38;;;16.25;;
5553;SDS011;2800;49.528;8.666;2023-01-25T06:05:59;22.98;;;16.42;;
5553;SDS011;2800;49.528;8.666;2023-01-25T06:08:26;24.05;;;16.73;;
5553;SDS011;2800;49.528;8.666;2023-01-25T06:10:52;22.70;;;17.20;;
5553;SDS011;2800;49.528;8.666;2023-01-25T06:13:17;27.40;;;21.17;;
5553;SDS011;2800;49.528;8.666;2023-01-25T06:15:50;27.50;;;16.03;;
5553;SDS011;2800;49.528;8.666;2023-01-25T06:18:17;23.10;;;17.15;;
5553;SDS011;2800;49.528;8.666;2023-01-25T06:20:42;21.80;;;15.37;;
5553;SDS011;2800;49.528;8.666;2023-01-25T06:23:08;22.67;;;16.83;;
5553;SDS011;2800;49.528;8.666;2023-01-25T06:25:33;22.13;;;14.33;;
5553;SDS011;2800;49.528;8.666;2023-01-25T06:27:59;17.67;;;12.67;;
5553;SDS011;2800;49.528;8.666;2023-01-25T06:30:24;19.03;;;14.20;;
5553;SDS011;2800;49.528;8.666;2023-01-25T06:32:50;20.20;;;14.20;;
5553;SDS011;2800;49.528;8.666;2023-01-25T06:35:15;19.90;;;14.90;;
5553;SDS011;2800;49.528;8.666;2023-01-25T06:37:41;22.53;;;16.17;;
5553;SDS011;2800;49.528;8.666;2023-01-25T06:40:07;21.60;;;15.43;;
5553;SDS011;2800;49.528;8.666;2023-01-25T06:42:32;19.95;;;13.80;;
5553;SDS011;2800;49.528;8.666;2023-01-25T06:44:58;20.17;;;14.80;;
5553;SDS011;2800;49.528;8.666;2023-01-25T06:47:23;20.63;;;13.70;;
5553;SDS011;2800;49.528;8.666;2023-01-25T06:49:49;19.40;;;13.47;;
5553;SDS011;2800;49.528;8.666;2023-01-25T06:52:14;21.13;;;14.97;;
5553;SDS011;2800;49.528;8.666;2023-01-25T06:54:40;19.87;;;13.97;;
5553;SDS011;2800;49.528;8.666;2023-01-25T06:57:06;18.73;;;11.80;;
5553;SDS011;2800;49.528;8.666;2023-01-25T06:59:34;17.55;;;12.48;;
5553;SDS011;2800;49.528;8.666;2023-01-25T07:01:59;17.23;;;13.20;;
5553;SDS011;2800;49.528;8.666;2023-01-25T07:04:25;18.27;;;12.73;;
5553;SDS011;2800;49.528;8.666;2023-01-25T07:06:50;18.67;;;12.17;;
5553;SDS011;2800;49.528;8.666;2023-01-25T07:09:16;29.73;;;18.93;;
5553;SDS011;2800;49.528;8.666;2023-01-25T07:11:47;27.88;;;17.80;;
5553;SDS011;2800;49.528;8.666;2023-01-25T07:14:13;17.97;;;12.80;;
5553;SDS011;2800;49.528;8.666;2023-01-25T07:16:38;19.37;;;13.00;;
5553;SDS011;2800;49.528;8.666;2023-01-25T07:19:04;18.50;;;12.40;;
5553;SDS011;2800;49.528;8.666;2023-01-25T07:21:30;18.15;;;12.65;;
5553;SDS011;2800;49.528;8.666;2023-01-25T07:23:59;20.53;;;12.07;;
5553;SDS011;2800;49.528;8.666;2023-01-25T07:26:26;19.48;;;13.43;;
5553;SDS011;2800;49.528;8.666;2023-01-25T07:28:52;21.30;;;14.03;;
5553;SDS011;2800;49.528;8.666;2023-01-25T07:31:19;23.23;;;14.35;;
5553;SDS011;2800;49.528;8.666;2023-01-25T07:33:49;22.27;;;15.13;;
5553;SDS011;2800;49.528;8.666;2023-01-25T07:36:19;29.17;;;21.65;;
5553;SDS011;2800;49.528;8.666;2023-01-25T07:38:45;21.45;;;14.90;;
5553;SDS011;2800;49.528;8.666;2023-01-25T07:41:11;21.17;;;15.87;;
5553;SDS011;2800;49.528;8.666;2023-01-25T07:43:37;32.63;;;23.23;;
5553;SDS011;2800;49.528;8.666;2023-01-25T07:46:04;23.60;;;17.17;;
5553;SDS011;2800;49.528;8.666;2023-01-25T07:48:31;29.42;;;20.65;;
5553;SDS011;2800;49.528;8.666;2023-01-25T07:50:58;18.67;;;12.87;;
5553;SDS011;2800;49.528;8.666;2023-01-25T07:53:40;18.75;;;13.95;;
5553;SDS011;2800;49.528;8.666;2023-01-25T07:56:07;18.00;;;12.07;;
5553;SDS011;2800;49.528;8.666;2023-01-25T07:58:34;17.70;;;12.68;;
5553;SDS011;2800;49.528;8.666;2023-01-25T08:01:10;19.53;;;13.00;;
5553;SDS011;2800;49.528;8.666;2023-01-25T08:03:43;20.17;;;14.23;;
5553;SDS011;2800;49.528;8.666;2023-01-25T08:06:09;17.02;;;13.07;;
5553;SDS011;2800;49.528;8.666;2023-01-25T08:08:36;15.85;;;11.55;;
5553;SDS011;2800;49.528;8.666;2023-01-25T08:11:09;21.02;;;16.38;;
5553;SDS011;2800;49.528;8.666;2023-01-25T08:13:45;20.88;;;12.95;;
5553;SDS011;2800;49.528;8.666;2023-01-25T08:16:18;15.55;;;11.30;;
5553;SDS011;2800;49.528;8.666;2023-01-25T08:18:48;17.85;;;13.43;;
5553;SDS011;2800;49.528;8.666;2023-01-25T08:21:15;17.38;;;11.40;;
5553;SDS011;2800;49.528;8.666;2023-01-25T08:23:40;19.07;;;12.70;;
5553;SDS011;2800;49.528;8.666;2023-01-25T08:26:07;16.37;;;11.83;;
5553;SDS011;2800;49.528;8.666;2023-01-25T08:28:34;18.35;;;12.80;;
5553;SDS011;2800;49.528;8.666;2023-01-25T08:31:11;17.80;;;13.10;;
5553;SDS011;2800;49.528;8.666;2023-01-25T08:33:42;18.40;;;13.07;;
5553;SDS011;2800;49.528;8.666;2023-01-25T08:36:10;18.92;;;12.50;;
5553;SDS011;2800;49.528;8.666;2023-01-25T08:38:36;18.75;;;12.82;;
5553;SDS011;2800;49.528;8.666;2023-01-25T08:43:38;18.70;;;12.18;;
5553;SDS011;2800;49.528;8.666;2023-01-25T08:46:04;16.30;;;12.87;;
5553;SDS011;2800;49.528;8.666;2023-01-25T08:48:30;16.57;;;12.90;;
5553;SDS011;2800;49.528;8.666;2023-01-25T08:50:57;22.50;;;14.20;;
5553;SDS011;2800;49.528;8.666;2023-01-25T08:53:22;19.40;;;13.27;;
5553;SDS011;2800;49.528;8.666;2023-01-25T08:55:48;17.70;;;12.93;;
5553;SDS011;2800;49.528;8.666;2023-01-25T08:58:15;18.60;;;12.47;;
5553;SDS011;2800;49.528;8.666;2023-01-25T09:00:43;18.10;;;12.90;;
5553;SDS011;2800;49.528;8.666;2023-01-25T09:03:09;17.53;;;13.43;;
5553;SDS011;2800;49.528;8.666;2023-01-25T09:05:36;16.43;;;12.40;;
5553;SDS011;2800;49.528;8.666;2023-01-25T09:08:03;16.20;;;10.93;;
5553;SDS011;2800;49.528;8.666;2023-01-25T09:10:30;16.70;;;12.10;;
5553;SDS011;2800;49.528;8.666;2023-01-25T09:12:56;15.47;;;11.60;;
5553;SDS011;2800;49.528;8.666;2023-01-25T09:15:22;20.20;;;13.73;;
5553;SDS011;2800;49.528;8.666;2023-01-25T09:17:51;17.87;;;12.30;;
5553;SDS011;2800;49.528;8.666;2023-01-25T09:20:17;17.93;;;12.23;;
5553;SDS011;2800;49.528;8.666;2023-01-25T09:22:43;19.53;;;12.50;;
5553;SDS011;2800;49.528;8.666;2023-01-25T09:25:08;20.40;;;13.27;;
5553;SDS011;2800;49.528;8.666;2023-01-25T09:27:34;19.70;;;12.17;;
5553;SDS011;2800;49.528;8.666;2023-01-25T09:29:59;16.90;;;12.57;;
5553;SDS011;2800;49.528;8.666;2023-01-25T09:32:25;18.17;;;13.10;;
5553;SDS011;2800;49.528;8.666;2023-01-25T09:34:50;18.30;;;13.47;;
5553;SDS011;2800;49.528;8.666;2023-01-25T09:37:16;20.00;;;13.73;;
5553;SDS011;2800;49.528;8.666;2023-01-25T09:39:41;17.90;;;13.10;;
5553;SDS011;2800;49.528;8.666;2023-01-25T09:58:51;15.13;;;11.23;;
5553;SDS011;2800;49.528;8.666;2023-01-25T10:01:25;17.13;;;11.63;;
5553;SDS011;2800;49.528;8.666;2023-01-25T10:04:16;17.87;;;11.80;;
5553;SDS011;2800;49.528;8.666;2023-01-25T10:06:44;15.77;;;12.70;;
5553;SDS011;2800;49.528;8.666;2023-01-25T10:09:22;16.37;;;11.07;;
5553;SDS011;2800;49.528;8.666;2023-01-25T10:11:48;17.07;;;11.67;;
5553;SDS011;2800;49.528;8.666;2023-01-25T10:14:14;15.13;;;11.27;;
5553;SDS011;2800;49.528;8.666;2023-01-25T10:21:56;16.53;;;11.60;;
5553;SDS011;2800;49.528;8.666;2023-01-25T10:24:49;16.10;;;11.70;;
5553;SDS011;2800;49.528;8.666;2023-01-25T10:27:43;14.25;;;10.07;;
5553;SDS011;2800;49.528;8.666;2023-01-25T10:30:26;19.35;;;12.13;;
5553;SDS011;2800;49.528;8.666;2023-01-25T10:32:59;16.33;;;12.13;;
5553;SDS011;2800;49.528;8.666;2023-01-25T10:35:33;15.63;;;11.03;;
5553;SDS011;2800;49.528;8.666;2023-01-25T10:38:04;13.90;;;10.90;;
5553;SDS011;2800;49.528;8.666;2023-01-25T10:40:40;17.77;;;11.63;;
5553;SDS011;2800;49.528;8.666;2023-01-25T10:43:17;15.90;;;11.87;;
5553;SDS011;2800;49.528;8.666;2023-01-25T10:45:44;16.90;;;11.57;;
5553;SDS011;2800;49.528;8.666;2023-01-25T10:48:12;17.77;;;12.03;;
5553;SDS011;2800;49.528;8.666;2023-01-25T10:50:58;15.50;;;10.70;;
5553;SDS011;2800;49.528;8.666;2023-01-25T10:55:53;19.60;;;12.83;;
5553;SDS011;2800;49.528;8.666;2023-01-25T10:58:36;16.80;;;12.17;;
5553;SDS011;2800;49.528;8.666;2023-01-25T11:01:04;19.17;;;13.67;;
5553;SDS011;2800;49.528;8.666;2023-01-25T11:03:36;20.30;;;13.27;;
5553;SDS011;2800;49.528;8.666;2023-01-25T11:06:08;16.70;;;12.37;;
5553;SDS011;2800;49.528;8.666;2023-01-25T11:08:38;17.60;;;12.30;;
5553;SDS011;2800;49.528;8.666;2023-01-25T11:11:25;16.50;;;12.03;;
5553;SDS011;2800;49.528;8.666;2023-01-25T11:14:09;16.70;;;11.63;;
5553;SDS011;2800;49.528;8.666;2023-01-25T11:16:43;17.60;;;13.33;;
5553;SDS011;2800;49.528;8.666;2023-01-25T11:22:19;18.43;;;13.00;;
5553;SDS011;2800;49.528;8.666;2023-01-25T11:24:48;20.23;;;13.70;;
5553;SDS011;2800;49.528;8.666;2023-01-25T11:27:21;19.07;;;13.10;;
5553;SDS011;2800;49.528;8.666;2023-01-25T11:32:29;19.97;;;15.13;;
5553;SDS011;2800;49.528;8.666;2023-01-25T11:34:55;20.73;;;14.70;;
5553;SDS011;2800;49.528;8.666;2023-01-25T11:40:08;18.03;;;12.50;;
5553;SDS011;2800;49.528;8.666;2023-01-25T11:42:59;21.30;;;14.37;;
5553;SDS011;2800;49.528;8.666;2023-01-25T11:50:43;18.93;;;13.77;;
5553;SDS011;2800;49.528;8.666;2023-01-25T11:59:20;21.10;;;13.90;;
5553;SDS011;2800;49.528;8.666;2023-01-25T12:05:01;17.30;;;12.90;;
5553;SDS011;2800;49.528;8.666;2023-01-25T12:10:44;16.47;;;12.13;;
5553;SDS011;2800;49.528;8.666;2023-01-25T12:16:00;20.00;;;14.40;;
5553;SDS011;2800;49.528;8.666;2023-01-25T12:21:35;16.30;;;11.07;;
5553;SDS011;2800;49.528;8.666;2023-01-25T12:33:01;25.00;;;18.10;;
5553;SDS011;2800;49.528;8.666;2023-01-25T12:35:45;18.43;;;13.27;;
5553;SDS011;2800;49.528;8.666;2023-01-25T12:38:24;17.43;;;12.50;;
5553;SDS011;2800;49.528;8.666;2023-01-25T12:40:59;20.73;;;13.37;;
5553;SDS011;2800;49.528;8.666;2023-01-25T12:43:32;17.57;;;12.60;;
5553;SDS011;2800;49.528;8.666;2023-01-25T12:46:09;18.70;;;13.30;;
5553;SDS011;2800;49.528;8.666;2023-01-25T12:48:40;19.30;;;14.27;;
5553;SDS011;2800;49.528;8.666;2023-01-25T12:51:11;21.10;;;13.93;;
5553;SDS011;2800;49.528;8.666;2023-01-25T12:53:39;19.20;;;12.50;;
5553;SDS011;2800;49.528;8.666;2023-01-25T12:56:14;16.73;;;11.80;;
5553;SDS011;2800;49.528;8.666;2023-01-25T12:59:12;14.83;;;10.93;;
5553;SDS011;2800;49.528;8.666;2023-01-25T13:01:51;17.23;;;11.67;;
5553;SDS011;2800;49.528;8.666;2023-01-25T13:04:32;16.50;;;10.90;;
5553;SDS011;2800;49.528;8.666;2023-01-25T13:07:06;15.70;;;11.03;;
5553;SDS011;2800;49.528;8.666;2023-01-25T13:09:50;14.43;;;10.67;;
5553;SDS011;2800;49.528;8.666;2023-01-25T13:12:22;14.70;;;10.70;;
5553;SDS011;2800;49.528;8.666;2023-01-25T13:14:48;17.50;;;12.80;;
5553;SDS011;2800;49.528;8.666;2023-01-25T13:19:49;16.17;;;12.40;;
5553;SDS011;2800;49.528;8.666;2023-01-25T13:22:52;16.60;;;11.43;;
5553;SDS011;2800;49.528;8.666;2023-01-25T13:27:41;16.20;;;11.20;;
5553;SDS011;2800;49.528;8.666;2023-01-25T13:35:31;18.73;;;13.23;;
5553;SDS011;2800;49.528;8.666;2023-01-25T13:41:00;17.70;;;12.30;;
5553;SDS011;2800;49.528;8.666;2023-01-25T13:43:27;18.70;;;13.00;;
5553;SDS011;2800;49.528;8.666;2023-01-25T13:45:53;17.93;;;12.07;;
5553;SDS011;2800;49.528;8.666;2023-01-25T13:48:19;18.67;;;14.30;;
5553;SDS011;2800;49.528;8.666;2023-01-25T13:51:08;20.20;;;14.73;;
5553;SDS011;2800;49.528;8.666;2023-01-25T13:53:38;19.33;;;14.30;;
5553;SDS011;2800;49.528;8.666;2023-01-25T13:56:03;19.30;;;13.13;;
5553;SDS011;2800;49.528;8.666;2023-01-25T14:00:58;24.77;;;16.87;;
5553;SDS011;2800;49.528;8.666;2023-01-25T14:03:28;27.63;;;20.13;;
5553;SDS011;2800;49.528;8.666;2023-01-25T14:06:00;16.70;;;12.37;;
5553;SDS011;2800;49.528;8.666;2023-01-25T14:08:28;29.63;;;23.93;;
5553;SDS011;2800;49.528;8.666;2023-01-25T14:10:55;22.83;;;15.67;;
5553;SDS011;2800;49.528;8.666;2023-01-25T14:13:21;15.73;;;11.50;;
5553;SDS011;2800;49.528;8.666;2023-01-25T14:15:54;20.30;;;13.90;;
5553;SDS011;2800;49.528;8.666;2023-01-25T14:18:26;16.07;;;11.73;;
5553;SDS011;2800;49.528;8.666;2023-01-25T14:20:51;18.20;;;12.33;;
5553;SDS011;2800;49.528;8.666;2023-01-25T14:23:44;17.73;;;11.70;;
5553;SDS011;2800;49.528;8.666;2023-01-25T14:26:15;15.23;;;11.23;;
5553;SDS011;2800;49.528;8.666;2023-01-25T14:28:54;16.03;;;11.63;;
5553;SDS011;2800;49.528;8.666;2023-01-25T14:31:27;15.60;;;11.87;;
5553;SDS011;2800;49.528;8.666;2023-01-25T14:34:00;16.23;;;12.60;;
5553;SDS011;2800;49.528;8.666;2023-01-25T14:36:30;17.10;;;12.67;;
5553;SDS011;2800;49.528;8.666;2023-01-25T14:38:58;17.80;;;12.70;;
5553;SDS011;2800;49.528;8.666;2023-01-25T14:41:28;17.53;;;12.60;;
5553;SDS011;2800;49.528;8.666;2023-01-25T14:44:01;20.20;;;13.47;;
5553;SDS011;2800;49.528;8.666;2023-01-25T14:46:32;19.23;;;13.13;;
5553;SDS011;2800;49.528;8.666;2023-01-25T14:51:32;18.67;;;13.90;;
5553;SDS011;2800;49.528;8.666;2023-01-25T14:54:03;21.37;;;13.80;;
5553;SDS011;2800;49.528;8.666;2023-01-25T15:01:51;20.40;;;15.00;;
5553;SDS011;2800;49.528;8.666;2023-01-25T15:04:18;18.20;;;12.90;;
5553;SDS011;2800;49.528;8.666;2023-01-25T15:06:48;22.20;;;15.33;;
5553;SDS011;2800;49.528;8.666;2023-01-25T15:12:03;36.13;;;26.67;;
5553;SDS011;2800;49.528;8.666;2023-01-25T15:14:51;30.20;;;21.80;;
5553;SDS011;2800;49.528;8.666;2023-01-25T15:17:34;24.77;;;19.90;;
5553;SDS011;2800;49.528;8.666;2023-01-25T15:20:04;26.43;;;19.23;;
5553;SDS011;2800;49.528;8.666;2023-01-25T15:22:30;24.90;;;18.50;;
5553;SDS011;2800;49.528;8.666;2023-01-25T15:24:56;22.60;;;17.07;;
5553;SDS011;2800;49.528;8.666;2023-01-25T15:27:22;25.17;;;18.30;;
5553;SDS011;2800;49.528;8.666;2023-01-25T15:29:47;24.33;;;19.70;;
5553;SDS011;2800;49.528;8.666;2023-01-25T15:32:17;24.20;;;17.67;;
5553;SDS011;2800;49.528;8.666;2023-01-25T15:34:44;24.50;;;19.00;;
5553;SDS011;2800;49.528;8.666;2023-01-25T15:37:11;19.67;;;14.27;;
5553;SDS011;2800;49.528;8.666;2023-01-25T15:39:36;19.93;;;14.30;;
5553;SDS011;2800;49.528;8.666;2023-01-25T15:42:03;20.03;;;15.53;;
5553;SDS011;2800;49.528;8.666;2023-01-25T15:44:29;26.43;;;17.97;;
5553;SDS011;2800;49.528;8.666;2023-01-25T15:46:54;24.93;;;17.90;;
5553;SDS011;2800;49.528;8.666;2023-01-25T15:49:24;25.93;;;18.63;;
5553;SDS011;2800;49.528;8.666;2023-01-25T15:51:56;25.63;;;18.10;;
5553;SDS011;2800;49.528;8.666;2023-01-25T15:54:21;26.20;;;18.80;;
5553;SDS011;2800;49.528;8.666;2023-01-25T15:56:53;27.30;;;19.43;;
5553;SDS011;2800;49.528;8.666;2023-01-25T15:59:20;32.17;;;21.03;;
5553;SDS011;2800;49.528;8.666;2023-01-25T16:01:45;25.97;;;19.13;;
5553;SDS011;2800;49.528;8.666;2023-01-25T16:04:11;39.13;;;31.03;;
5553;SDS011;2800;49.528;8.666;2023-01-25T16:11:36;34.57;;;25.83;;
5553;SDS011;2800;49.528;8.666;2023-01-25T16:14:01;33.20;;;21.77;;
5553;SDS011;2800;49.528;8.666;2023-01-25T16:16:27;35.33;;;25.27;;
5553;SDS011;2800;49.528;8.666;2023-01-25T16:18:52;31.17;;;23.57;;
5553;SDS011;2800;49.528;8.666;2023-01-25T16:21:18;27.80;;;21.00;;
5553;SDS011;2800;49.528;8.666;2023-01-25T16:23:43;30.70;;;22.57;;
5553;SDS011;2800;49.528;8.666;2023-01-25T16:26:13;27.23;;;20.73;;
5553;SDS011;2800;49.528;8.666;2023-01-25T16:28:40;30.10;;;22.77;;
5553;SDS011;2800;49.528;8.666;2023-01-25T16:31:07;27.10;;;21.00;;
5553;SDS011;2800;49.528;8.666;2023-01-25T16:33:36;30.97;;;21.67;;
5553;SDS011;2800;49.528;8.666;2023-01-25T16:36:03;34.10;;;23.90;;
5553;SDS011;2800;49.528;8.666;2023-01-25T16:38:39;30.77;;;21.93;;
5553;SDS011;2800;49.528;8.666;2023-01-25T16:41:04;29.17;;;20.23;;
5553;SDS011;2800;49.528;8.666;2023-01-25T16:43:30;29.50;;;22.47;;
5553;SDS011;2800;49.528;8.666;2023-01-25T16:45:56;26.90;;;20.40;;
5553;SDS011;2800;49.528;8.666;2023-01-25T16:48:22;27.80;;;21.20;;
5553;SDS011;2800;49.528;8.666;2023-01-25T16:50:49;30.33;;;21.80;;
5553;SDS011;2800;49.528;8.666;2023-01-25T16:53:15;31.80;;;22.03;;
5553;SDS011;2800;49.528;8.666;2023-01-25T16:55:40;32.43;;;23.80;;
5553;SDS011;2800;49.528;8.666;2023-01-25T16:58:06;35.03;;;25.53;;
5553;SDS011;2800;49.528;8.666;2023-01-25T17:00:31;34.40;;;22.23;;
5553;SDS011;2800;49.528;8.666;2023-01-25T17:02:57;32.00;;;24.80;;
5553;SDS011;2800;49.528;8.666;2023-01-25T17:05:23;32.03;;;22.13;;